Time;durP1;ratioP1;P1;durP2;ratioP2;P2;SDS_P1;SDS_P2;PMS_P1;PMS_P2;Temp;Humidity;BMP_temperature;BMP_pressure;BME280_temperature;BME280_humidity;BME280_pressure;Samples;Min_cycle;Max_cycle;Signal;HPM_P1;HPM_P2
2021/11/22 00:02:20;;;;;;;15.63;4.95;;;;;;;12.08;55.28;101149.22;4994917;28;96881;-83
2021/11/22 00:04:47;;;;;;;12.00;4.80;;;;;;;12.14;55.79;101148.16;4995510;28;96928;-81
2021/11/22 00:07:15;;;;;;;14.45;5.10;;;;;;;12.25;54.52;101156.59;4995106;28;96969;-82
2021/11/22 00:09:42;;;;;;;10.50;4.47;;;;;;;12.10;55.68;101155.34;4989688;28;98138;-81
2021/11/22 00:12:11;;;;;;;11.05;4.25;;;;;;;12.23;55.13;101158.41;4985252;28;97093;-82
2021/11/22 00:14:37;;;;;;;10.95;4.30;;;;;;;12.33;54.91;101155.41;4982461;28;96862;-81
2021/11/22 00:17:05;;;;;;;11.13;4.45;;;;;;;12.18;55.08;101158.59;4991650;28;97651;-80
2021/11/22 00:19:33;;;;;;;11.43;4.32;;;;;;;12.18;55.03;101161.25;4984035;28;99402;-81
2021/11/22 00:22:00;;;;;;;11.02;4.57;;;;;;;11.97;54.96;101167.28;4987405;28;96601;-81
2021/11/22 00:24:26;;;;;;;13.32;4.43;;;;;;;12.05;55.76;101174.97;4993055;28;96659;-81
2021/11/22 00:26:53;;;;;;;9.88;4.25;;;;;;;11.97;55.43;101168.16;4981769;28;99869;-81
2021/11/22 00:29:21;;;;;;;11.85;4.07;;;;;;;12.11;54.83;101172.09;4971581;28;98180;-81
2021/11/22 00:31:49;;;;;;;13.68;4.10;;;;;;;12.39;54.55;101180.81;4968226;28;97700;-82
2021/11/22 00:34:16;;;;;;;14.05;4.72;;;;;;;12.68;54.45;101177.06;4975177;28;97006;-81
2021/11/22 00:36:43;;;;;;;12.30;4.60;;;;;;;12.36;54.56;101181.78;4974150;28;100424;-81
2021/11/22 00:39:10;;;;;;;12.05;4.55;;;;;;;11.92;55.68;101186.00;4971136;28;100045;-80
2021/11/22 00:41:36;;;;;;;10.25;4.03;;;;;;;12.06;55.33;101177.56;4970965;28;97109;-82
2021/11/22 00:44:03;;;;;;;11.77;3.83;;;;;;;12.36;54.37;101181.78;4974379;28;97003;-81
2021/11/22 00:46:31;;;;;;;11.65;3.90;;;;;;;12.25;55.28;101189.25;4975145;28;97865;-81
2021/11/22 00:48:58;;;;;;;13.95;4.00;;;;;;;11.84;55.26;101208.34;4983359;28;100826;-81
2021/11/22 00:51:24;;;;;;;12.00;4.65;;;;;;;11.59;56.35;101209.13;4981030;28;96679;-82
2021/11/22 00:53:52;;;;;;;8.68;4.13;;;;;;;11.38;58.03;101219.50;4988228;28;96833;-82
2021/11/22 00:56:21;;;;;;;14.50;4.70;;;;;;;11.22;57.62;101220.91;4976488;28;97457;-80
2021/11/22 00:58:48;;;;;;;11.90;4.13;;;;;;;11.45;57.27;101221.91;4978809;28;99881;-80
2021/11/22 01:01:15;;;;;;;11.23;3.83;;;;;;;11.20;57.90;101218.31;4977985;28;97048;-80
2021/11/22 01:03:42;;;;;;;6.55;3.85;;;;;;;11.22;57.46;101235.00;4972401;28;97646;-81
2021/11/22 01:06:09;;;;;;;12.63;3.95;;;;;;;11.35;56.94;101232.84;4975745;28;101191;-81
2021/11/22 01:08:35;;;;;;;10.15;4.53;;;;;;;11.39;57.41;101245.94;4969469;28;98867;-82
2021/11/22 01:11:02;;;;;;;7.82;3.33;;;;;;;11.40;56.46;101245.03;4970362;28;98065;-81
2021/11/22 01:13:28;;;;;;;8.75;3.10;;;;;;;11.47;57.01;101246.56;4972102;28;97083;-81
2021/11/22 01:15:55;;;;;;;11.98;3.63;;;;;;;11.56;56.02;101255.97;4969904;28;98650;-81
2021/11/22 01:18:21;;;;;;;8.68;3.30;;;;;;;11.22;56.89;101258.81;4962044;28;98961;-80
2021/11/22 01:20:49;;;;;;;9.05;3.03;;;;;;;11.53;56.82;101261.38;4968268;28;97586;-82
2021/11/22 01:23:16;;;;;;;8.73;2.60;;;;;;;11.52;56.27;101263.16;4966651;28;97273;-82
2021/11/22 01:25:45;;;;;;;12.27;3.50;;;;;;;10.82;57.03;101271.47;4981525;28;97756;-81
2021/11/22 01:28:12;;;;;;;9.80;3.25;;;;;;;10.84;58.58;101273.13;4967873;28;96769;-81
2021/11/22 01:30:39;;;;;;;6.78;3.00;;;;;;;10.63;58.87;101279.88;4981510;28;96848;-81
2021/11/22 01:33:06;;;;;;;5.85;2.78;;;;;;;10.79;58.13;101283.84;4969829;28;96914;-81
2021/11/22 01:35:33;;;;;;;9.35;2.75;;;;;;;10.51;58.27;101282.84;4975383;28;99383;-81
2021/11/22 01:38:01;;;;;;;8.48;2.25;;;;;;;10.51;58.68;101285.50;4979891;28;100829;-80
2021/11/22 01:40:28;;;;;;;4.75;2.20;;;;;;;10.90;58.36;101286.16;4978340;28;97858;-81
2021/11/22 01:42:56;;;;;;;6.45;2.10;;;;;;;10.96;57.64;101298.38;4973571;28;96991;-82
2021/11/22 01:45:25;;;;;;;8.95;1.88;;;;;;;10.99;57.42;101293.84;4985991;28;98906;-80
2021/11/22 01:47:52;;;;;;;2.72;1.80;;;;;;;10.58;57.87;101302.91;4978402;28;97168;-81
2021/11/22 01:50:21;;;;;;;4.90;1.60;;;;;;;10.95;58.20;101307.22;4974613;28;96914;-80
2021/11/22 01:52:49;;;;;;;5.93;1.80;;;;;;;10.90;57.95;101307.31;4972752;28;97185;-81
2021/11/22 01:55:20;;;;;;;4.65;1.60;;;;;;;11.07;57.71;101310.38;4972672;28;98861;-81
2021/11/22 01:57:49;;;;;;;3.03;1.48;;;;;;;10.88;56.95;101314.44;4967678;28;99233;-82
2021/11/22 02:00:20;;;;;;;9.80;1.80;;;;;;;10.86;57.79;101315.38;4969706;28;97697;-82
2021/11/22 02:02:47;;;;;;;4.20;1.77;;;;;;;10.36;58.17;101314.97;4971707;28;96866;-82
2021/11/22 02:05:14;;;;;;;6.15;1.60;;;;;;;10.59;58.68;101311.72;4969868;28;98914;-82
2021/11/22 02:07:40;;;;;;;6.47;1.50;;;;;;;10.89;57.97;101323.25;4969853;28;97939;-82
2021/11/22 02:10:08;;;;;;;3.20;1.52;;;;;;;10.87;57.51;101327.72;4964453;28;97937;-81
2021/11/22 02:12:36;;;;;;;4.28;1.33;;;;;;;10.31;59.09;101324.75;4972405;28;97289;-82
2021/11/22 02:15:05;;;;;;;5.90;1.70;;;;;;;10.44;58.89;101330.59;4972724;28;98961;-81
2021/11/22 02:17:36;;;;;;;4.03;1.50;;;;;;;10.86;57.82;101336.53;4975079;28;99281;-82
2021/11/22 02:20:07;;;;;;;3.67;1.42;;;;;;;10.79;56.69;101339.34;4976371;28;97096;-82
2021/11/22 02:22:35;;;;;;;4.53;1.40;;;;;;;10.80;57.41;101342.88;4970381;28;96976;-82
2021/11/22 02:25:06;;;;;;;1.25;1.13;;;;;;;10.87;56.98;101348.84;4963322;28;98164;-82
2021/11/22 02:27:33;;;;;;;2.38;1.35;;;;;;;10.53;57.90;101348.88;4964667;28;98179;-80
2021/11/22 02:30:00;;;;;;;4.60;1.30;;;;;;;10.66;57.91;101351.16;4964516;28;97028;-82
2021/11/22 02:32:27;;;;;;;3.95;1.17;;;;;;;10.70;58.19;101346.66;4965351;28;96971;-82
2021/11/22 02:34:53;;;;;;;3.47;1.05;;;;;;;10.38;58.95;101344.84;4974533;28;101875;-83
2021/11/22 02:37:22;;;;;;;2.83;1.02;;;;;;;10.50;58.56;101359.53;4976889;28;98038;-82
2021/11/22 02:39:49;;;;;;;2.47;1.05;;;;;;;10.70;58.22;101360.72;4976676;28;97790;-82
2021/11/22 02:42:23;;;;;;;4.63;1.33;;;;;;;10.51;58.24;101356.84;4967576;28;97028;-82
2021/11/22 02:44:50;;;;;;;4.63;1.10;;;;;;;10.45;58.71;101364.91;4970962;28;99329;-81
2021/11/22 02:47:16;;;;;;;8.52;1.33;;;;;;;10.10;58.84;101368.41;4958298;28;98051;-82
2021/11/22 02:49:43;;;;;;;1.98;1.08;;;;;;;10.59;58.77;101361.94;4968781;28;96867;-81
2021/11/22 02:52:10;;;;;;;5.88;1.00;;;;;;;10.79;57.95;101368.44;4970655;28;97150;-82
2021/11/22 02:54:38;;;;;;;8.63;0.98;;;;;;;10.86;57.58;101363.84;4979486;28;99040;-82
2021/11/22 02:57:05;;;;;;;6.63;0.98;;;;;;;10.70;58.08;101371.31;4988112;28;101071;-82
2021/11/22 02:59:32;;;;;;;4.00;1.02;;;;;;;11.04;57.55;101367.75;4986513;28;96774;-82
2021/11/22 03:01:59;;;;;;;3.80;0.80;;;;;;;10.98;56.12;101373.22;4979125;28;97888;-82
2021/11/22 03:04:33;;;;;;;3.10;0.70;;;;;;;10.69;57.24;101374.88;4963260;28;100406;-82
2021/11/22 03:06:59;;;;;;;3.83;0.93;;;;;;;10.83;57.57;101381.59;4976179;28;97278;-82
2021/11/22 03:09:26;;;;;;;2.38;0.90;;;;;;;11.08;57.05;101380.88;4975299;28;98853;-82
2021/11/22 03:11:54;;;;;;;4.05;0.90;;;;;;;10.95;57.34;101389.19;4971743;28;98670;-82
2021/11/22 03:14:21;;;;;;;2.50;0.90;;;;;;;10.81;57.80;101391.31;4975652;28;99303;-80
2021/11/22 03:16:47;;;;;;;4.05;1.15;;;;;;;10.78;58.47;101395.78;4973704;28;97742;-81
2021/11/22 03:19:14;;;;;;;4.85;1.50;;;;;;;10.56;58.15;101404.31;4968945;28;97239;-80
2021/11/22 03:21:41;;;;;;;2.60;0.90;;;;;;;10.53;58.75;101409.66;4967364;28;96852;-82
2021/11/22 03:24:08;;;;;;;3.60;1.10;;;;;;;10.58;58.94;101410.41;4977425;28;98488;-82
2021/11/22 03:26:34;;;;;;;5.95;1.10;;;;;;;10.58;58.62;101426.25;4972387;28;98892;-82
2021/11/22 03:29:02;;;;;;;3.30;0.98;;;;;;;10.77;58.52;101419.59;4973029;28;96722;-81
2021/11/22 03:31:30;;;;;;;5.80;0.90;;;;;;;10.65;58.18;101422.56;4974384;28;97177;-82
2021/11/22 03:33:56;;;;;;;3.15;1.35;;;;;;;10.66;58.83;101430.44;4974477;28;98212;-82
2021/11/22 03:36:23;;;;;;;2.20;1.30;;;;;;;10.55;58.71;101437.78;4981098;28;98173;-80
2021/11/22 03:38:49;;;;;;;6.32;1.20;;;;;;;10.75;58.84;101439.94;4984071;28;97070;-81
2021/11/22 03:41:17;;;;;;;3.13;1.20;;;;;;;11.09;57.79;101445.22;4978664;28;97407;-81
2021/11/22 03:43:48;;;;;;;1.77;1.13;;;;;;;11.07;57.68;101442.63;4979775;28;99064;-81
2021/11/22 03:46:19;;;;;;;2.13;0.90;;;;;;;10.79;58.31;101442.44;4979615;28;98197;-81
2021/11/22 03:48:45;;;;;;;2.95;0.70;;;;;;;10.89;57.99;101453.69;4970272;28;96654;-81
2021/11/22 03:51:12;;;;;;;3.17;0.88;;;;;;;10.94;57.89;101449.13;4981114;28;98936;-81
2021/11/22 03:53:39;;;;;;;3.80;0.68;;;;;;;11.15;57.87;101458.28;4974217;28;99113;-80
2021/11/22 03:56:06;;;;;;;4.68;0.73;;;;;;;11.30;56.91;101456.97;4981833;28;97007;-82
2021/11/22 03:58:33;;;;;;;2.35;0.90;;;;;;;11.23;57.02;101461.56;4967988;28;98828;-81
2021/11/22 04:01:00;;;;;;;2.33;0.50;;;;;;;11.09;57.09;101466.38;4970543;28;99052;-82
2021/11/22 04:03:28;;;;;;;2.13;0.60;;;;;;;11.11;57.54;101465.41;4966571;28;98955;-82
2021/11/22 04:05:55;;;;;;;2.42;1.00;;;;;;;11.00;57.93;101478.06;4963743;28;97923;-82
2021/11/22 04:08:22;;;;;;;2.72;1.10;;;;;;;11.13;56.91;101476.84;4960966;28;97778;-81
2021/11/22 04:10:49;;;;;;;4.47;0.90;;;;;;;11.38;56.49;101482.34;4964144;28;97867;-80
2021/11/22 04:13:15;;;;;;;4.07;1.25;;;;;;;11.34;56.71;101478.06;4961848;28;98251;-81
2021/11/22 04:15:42;;;;;;;2.40;0.70;;;;;;;10.89;58.05;101495.13;4961205;28;101947;-81
2021/11/22 04:18:09;;;;;;;2.22;0.50;;;;;;;11.04;58.24;101502.63;4966957;28;96865;-82
2021/11/22 04:20:37;;;;;;;2.55;0.73;;;;;;;11.18;57.97;101503.16;4967736;28;98129;-81
2021/11/22 04:23:04;;;;;;;2.00;1.10;;;;;;;10.90;59.11;101507.41;4964124;28;98463;-81
2021/11/22 04:25:32;;;;;;;4.10;1.92;;;;;;;11.37;58.01;101509.69;4972556;28;101407;-81
2021/11/22 04:27:59;;;;;;;6.63;1.30;;;;;;;11.57;56.81;101517.09;4965349;28;98634;-81
2021/11/22 04:30:26;;;;;;;13.73;5.30;;;;;;;11.74;56.35;101516.69;4974221;28;97071;-82
2021/11/22 04:32:52;;;;;;;32.80;1.98;;;;;;;11.47;55.90;101516.50;4969121;28;99370;-83
2021/11/22 04:35:19;;;;;;;4.78;0.90;;;;;;;11.35;56.78;101526.53;4965498;28;101577;-82
2021/11/22 04:37:47;;;;;;;4.75;1.95;;;;;;;10.85;58.87;101530.44;4969133;28;98570;-81
2021/11/22 04:40:16;;;;;;;3.67;2.13;;;;;;;10.99;58.74;101537.16;4973002;28;96930;-81
2021/11/22 04:42:45;;;;;;;4.10;1.80;;;;;;;10.87;57.90;101545.38;4964882;28;99350;-83
2021/11/22 04:45:12;;;;;;;1.85;0.60;;;;;;;10.47;58.60;101544.56;4968555;28;98811;-83
2021/11/22 04:47:39;;;;;;;1.65;0.47;;;;;;;11.00;58.16;101553.88;4968696;28;97646;-81
2021/11/22 04:50:06;;;;;;;2.70;0.90;;;;;;;10.67;57.62;101561.72;4969511;28;97149;-82
2021/11/22 04:52:32;;;;;;;3.33;1.08;;;;;;;10.21;58.59;101560.97;4969579;28;98205;-80
2021/11/22 04:55:01;;;;;;;0.85;0.50;;;;;;;10.48;59.47;101559.50;4971966;28;99457;-82
2021/11/22 04:57:28;;;;;;;2.42;0.73;;;;;;;10.77;59.06;101567.63;4966480;28;97331;-82
2021/11/22 04:59:54;;;;;;;3.45;0.80;;;;;;;10.78;58.67;101564.97;4971494;28;97171;-80
2021/11/22 05:02:20;;;;;;;4.43;0.95;;;;;;;10.81;57.50;101573.75;4970513;28;99610;-81
2021/11/22 05:04:47;;;;;;;4.20;0.93;;;;;;;10.91;57.88;101569.97;4978739;28;100414;-81
2021/11/22 05:07:14;;;;;;;5.78;0.88;;;;;;;10.15;57.60;101569.88;4976554;28;97435;-80
2021/11/22 05:09:40;;;;;;;3.05;1.60;;;;;;;10.22;59.45;101574.16;4986193;28;96866;-80
2021/11/22 05:12:09;;;;;;;3.13;0.80;;;;;;;10.29;59.19;101588.09;4985884;28;96871;-80
2021/11/22 05:14:35;;;;;;;6.65;1.33;;;;;;;10.37;58.32;101587.03;4983317;28;98965;-81
2021/11/22 05:17:02;;;;;;;4.25;1.02;;;;;;;10.25;58.86;101591.69;4974373;28;96692;-82
2021/11/22 05:19:32;;;;;;;1.33;0.80;;;;;;;10.34;57.93;101592.38;4970659;28;99026;-82
2021/11/22 05:21:59;;;;;;;3.60;1.20;;;;;;;10.41;57.48;101593.13;4961570;28;101067;-80
2021/11/22 05:24:25;;;;;;;7.68;3.28;;;;;;;10.63;57.27;101594.38;4972950;28;101562;-80
2021/11/22 05:26:52;;;;;;;4.40;1.50;;;;;;;10.39;56.38;101594.94;4974015;28;96847;-83
2021/11/22 05:29:20;;;;;;;3.50;0.55;;;;;;;9.99;58.29;101594.84;4977254;28;97196;-81
2021/11/22 05:31:47;;;;;;;3.42;0.70;;;;;;;9.50;58.98;101606.31;4973089;28;99022;-82
2021/11/22 05:34:15;;;;;;;3.03;0.60;;;;;;;10.04;58.35;101598.28;4973056;28;98209;-81
2021/11/22 05:36:42;;;;;;;1.05;0.63;;;;;;;9.94;57.76;101610.78;4972626;28;98835;-81
2021/11/22 05:39:09;;;;;;;2.95;0.50;;;;;;;10.12;58.00;101617.47;4974148;28;96866;-81
2021/11/22 05:41:35;;;;;;;1.83;0.52;;;;;;;9.88;56.65;101618.81;4972913;28;98665;-81
2021/11/22 05:44:02;;;;;;;2.45;0.50;;;;;;;9.75;57.54;101622.56;4969505;28;100129;-82
2021/11/22 05:46:30;;;;;;;3.28;0.47;;;;;;;9.55;58.54;101620.28;4972714;28;96859;-81
2021/11/22 05:48:57;;;;;;;2.38;0.73;;;;;;;9.39;58.42;101628.47;4967744;28;97289;-81
2021/11/22 05:51:25;;;;;;;1.35;0.40;;;;;;;9.44;58.02;101631.94;4970401;28;99291;-81
2021/11/22 05:53:52;;;;;;;3.10;0.85;;;;;;;9.16;58.42;101635.00;4970823;28;98599;-81
2021/11/22 05:56:18;;;;;;;2.97;0.50;;;;;;;9.37;58.29;101641.72;4969990;28;97243;-81
2021/11/22 05:58:45;;;;;;;1.98;0.55;;;;;;;9.69;56.77;101646.44;4975404;28;97229;-81
2021/11/22 06:01:13;;;;;;;0.85;0.50;;;;;;;9.76;55.88;101650.72;4970769;28;98886;-81
2021/11/22 06:03:41;;;;;;;0.98;0.60;;;;;;;9.80;56.58;101648.88;4966272;28;98991;-80
2021/11/22 06:06:08;;;;;;;2.42;0.65;;;;;;;9.64;56.67;101656.22;4974977;28;97929;-80
2021/11/22 06:08:34;;;;;;;1.65;0.40;;;;;;;9.16;57.43;101658.75;4972155;28;97386;-81
2021/11/22 06:11:01;;;;;;;7.07;1.13;;;;;;;8.90;57.99;101660.00;4975745;28;98137;-80
2021/11/22 06:13:27;;;;;;;1.98;0.70;;;;;;;9.27;58.09;101665.59;4979514;28;99031;-81
2021/11/22 06:15:54;;;;;;;1.83;0.80;;;;;;;9.49;57.52;101661.75;4978426;28;96668;-81
2021/11/22 06:18:20;;;;;;;2.25;0.70;;;;;;;9.72;56.77;101675.41;4967707;28;98396;-80
2021/11/22 06:20:48;;;;;;;2.10;0.60;;;;;;;9.60;56.59;101681.75;4967904;28;102132;-80
2021/11/22 06:23:15;;;;;;;3.72;0.82;;;;;;;9.54;56.26;101679.22;4973582;28;96919;-82
2021/11/22 06:25:42;;;;;;;2.88;0.70;;;;;;;9.71;55.73;101678.97;4976247;28;96830;-80
2021/11/22 06:28:08;;;;;;;3.17;1.48;;;;;;;10.05;54.23;101689.78;4971907;28;97908;-81
2021/11/22 06:30:35;;;;;;;3.70;0.57;;;;;;;9.73;54.03;101692.13;4974373;28;98264;-82
2021/11/22 06:33:01;;;;;;;1.52;0.50;;;;;;;9.59;55.29;101689.69;4970269;28;99083;-83
2021/11/22 06:35:28;;;;;;;1.98;1.27;;;;;;;9.73;55.24;101703.53;4973381;28;96790;-82
2021/11/22 06:37:56;;;;;;;5.72;2.08;;;;;;;9.89;54.15;101705.03;4968036;28;98193;-83
2021/11/22 06:40:23;;;;;;;8.63;2.70;;;;;;;9.58;54.98;101706.47;4974605;28;99959;-80
2021/11/22 06:42:50;;;;;;;6.38;1.00;;;;;;;9.43;54.27;101718.13;4965364;28;98885;-80
2021/11/22 06:45:18;;;;;;;4.28;1.27;;;;;;;9.44;55.73;101726.91;4975821;28;96885;-81
2021/11/22 06:47:45;;;;;;;2.45;0.90;;;;;;;9.53;55.16;101730.25;4965164;28;99266;-80
2021/11/22 06:50:12;;;;;;;5.78;1.02;;;;;;;8.81;55.86;101729.53;4970055;28;98157;-80
2021/11/22 06:52:38;;;;;;;2.97;1.10;;;;;;;8.51;57.65;101736.06;4971099;28;98933;-80
2021/11/22 06:55:07;;;;;;;3.58;1.10;;;;;;;8.75;58.46;101740.16;4973206;28;97054;-81
2021/11/22 06:57:34;;;;;;;3.58;1.10;;;;;;;8.98;57.09;101740.75;4971498;28;96970;-81
2021/11/22 07:00:01;;;;;;;3.45;1.08;;;;;;;9.23;56.61;101745.69;4973764;28;100508;-81
2021/11/22 07:02:28;;;;;;;4.40;0.60;;;;;;;9.26;55.88;101753.53;4970309;28;100494;-80
2021/11/22 07:04:55;;;;;;;1.90;0.70;;;;;;;9.25;55.67;101765.00;4975945;28;96988;-80
2021/11/22 07:07:22;;;;;;;5.70;0.82;;;;;;;9.19;55.49;101774.72;4966353;28;97739;-81
2021/11/22 07:09:49;;;;;;;2.33;0.63;;;;;;;9.10;55.56;101772.22;4971931;28;98083;-79
2021/11/22 07:12:17;;;;;;;3.70;0.95;;;;;;;9.23;55.49;101780.84;4980099;28;98405;-81
2021/11/22 07:14:44;;;;;;;9.50;1.08;;;;;;;9.03;55.90;101788.13;4972696;28;96706;-81
2021/11/22 07:17:14;;;;;;;4.13;1.38;;;;;;;9.39;55.25;101792.03;4977949;28;96712;-80
2021/11/22 07:19:44;;;;;;;5.07;1.13;;;;;;;9.57;55.56;101787.38;4978718;28;97262;-80
2021/11/22 07:22:11;;;;;;;4.43;1.15;;;;;;;9.43;54.39;101799.91;4978842;28;98022;-81
2021/11/22 07:24:44;;;;;;;3.90;1.10;;;;;;;9.57;54.82;101792.66;4981211;28;97168;-81
2021/11/22 07:27:11;;;;;;;3.50;1.45;;;;;;;9.70;54.88;101793.34;4987866;28;96949;-82
2021/11/22 07:29:41;;;;;;;4.68;1.13;;;;;;;9.90;54.46;101801.81;4990616;28;96930;-82
2021/11/22 07:32:08;;;;;;;4.60;1.33;;;;;;;10.10;53.94;101804.16;4987637;28;98339;-81
2021/11/22 07:34:35;;;;;;;2.00;1.10;;;;;;;10.26;52.86;101804.75;4985934;28;97264;-82
2021/11/22 07:37:02;;;;;;;6.00;1.30;;;;;;;9.85;53.52;101810.69;4983876;28;97746;-81
2021/11/22 07:39:29;;;;;;;5.35;1.25;;;;;;;9.64;54.79;101818.94;4983063;28;97748;-81
2021/11/22 07:41:57;;;;;;;3.38;1.10;;;;;;;9.52;54.63;101819.97;4962284;28;99581;-81
2021/11/22 07:44:25;;;;;;;3.78;1.33;;;;;;;9.38;55.14;101828.13;4970198;28;96843;-81
2021/11/22 07:46:53;;;;;;;4.03;1.05;;;;;;;9.18;55.94;101832.78;4975848;28;98138;-80
2021/11/22 07:49:19;;;;;;;4.55;1.10;;;;;;;9.52;55.71;101833.16;4973042;28;98503;-79
2021/11/22 07:51:51;;;;;;;2.05;0.85;;;;;;;9.28;55.01;101839.66;4979785;28;97716;-85
2021/11/22 07:54:18;;;;;;;3.22;1.23;;;;;;;9.23;56.06;101848.53;4981505;28;98578;-82
2021/11/22 07:56:45;;;;;;;6.32;0.90;;;;;;;8.94;56.32;101844.47;4981976;28;96861;-82
2021/11/22 07:59:13;;;;;;;3.47;1.23;;;;;;;8.94;56.44;101855.00;4979830;28;98739;-81
2021/11/22 08:01:39;;;;;;;2.50;1.08;;;;;;;9.42;55.19;101853.53;4979483;28;100565;-80
2021/11/22 08:04:12;;;;;;;1.70;1.10;;;;;;;9.52;54.45;101860.44;4977911;28;98127;-80
2021/11/22 08:07:10;;;;;;;4.13;1.50;;;;;;;9.53;54.85;101863.94;4977076;28;97020;-81
2021/11/22 08:09:42;;;;;;;;;;;;;;;9.78;53.37;101865.34;4974125;28;100418;-81
2021/11/22 08:12:25;;;;;;;5.63;1.63;;;;;;;9.98;53.44;101870.31;4978774;28;98095;-80
2021/11/22 08:14:53;;;;;;;5.05;1.75;;;;;;;9.85;52.79;101866.13;4972745;28;97693;-79
2021/11/22 08:17:20;;;;;;;3.05;1.27;;;;;;;9.96;52.96;101869.50;4970503;28;97232;-78
2021/11/22 08:19:48;;;;;;;8.65;2.25;;;;;;;9.86;53.17;101889.00;4969909;28;99034;-79
2021/11/22 08:22:15;;;;;;;2.17;1.15;;;;;;;9.35;53.64;101894.09;4970512;28;99126;-79
2021/11/22 08:24:42;;;;;;;3.15;1.60;;;;;;;9.45;53.13;101897.50;4977607;28;97575;-80
2021/11/22 08:27:09;;;;;;;6.50;3.20;;;;;;;9.83;53.16;101897.84;4971909;28;97319;-79
2021/11/22 08:29:36;;;;;;;3.00;1.98;;;;;;;10.12;52.44;101905.31;4967728;28;99166;-79
2021/11/22 08:32:12;;;;;;;6.28;1.65;;;;;;;10.26;51.51;101899.88;4976165;28;98470;-80
2021/11/22 08:34:39;;;;;;;6.13;1.50;;;;;;;9.96;51.63;101903.81;4972769;28;98415;-80
2021/11/22 08:37:07;;;;;;;2.35;1.80;;;;;;;10.15;51.70;101896.50;4972878;28;96897;-80
2021/11/22 08:39:33;;;;;;;3.97;2.25;;;;;;;9.79;51.92;101909.31;4967999;28;101828;-80
2021/11/22 08:42:00;;;;;;;3.90;1.65;;;;;;;10.02;50.55;101911.66;4971143;28;99834;-80
2021/11/22 08:44:27;;;;;;;3.50;1.48;;;;;;;9.67;51.13;101913.91;4972372;28;97423;-79
2021/11/22 08:46:53;;;;;;;2.22;1.00;;;;;;;9.72;51.96;101920.84;4969454;28;97262;-79
2021/11/22 08:49:49;;;;;;;;;;;;;;;;;;;;;
2021/11/22 08:52:18;;;;;;;3.10;1.02;;;;;;;9.80;50.68;101926.03;4963520;28;127928;-79
2021/11/22 08:54:46;;;;;;;5.50;1.30;;;;;;;10.15;50.74;101925.53;4969525;28;97213;-79
2021/11/22 08:57:13;;;;;;;2.92;1.23;;;;;;;10.11;50.34;101929.16;4973853;28;97067;-81
2021/11/22 08:59:47;;;;;;;1.38;0.98;;;;;;;9.74;51.38;101934.91;4975260;28;100840;-81
2021/11/22 09:02:14;;;;;;;4.68;1.10;;;;;;;10.10;51.22;101935.31;4972268;28;99505;-82
2021/11/22 09:04:41;;;;;;;5.85;1.40;;;;;;;9.82;50.42;101935.69;4966723;28;97154;-81
2021/11/22 09:07:08;;;;;;;3.88;0.90;;;;;;;9.82;51.11;101942.75;4982897;28;96945;-83
2021/11/22 09:09:37;;;;;;;1.80;0.88;;;;;;;9.51;51.93;101944.91;4978525;28;99372;-83
2021/11/22 09:12:03;;;;;;;1.75;1.10;;;;;;;10.13;50.29;101936.13;4976916;28;98221;-80
2021/11/22 09:14:44;;;;;;;2.47;0.90;;;;;;;9.97;49.89;101943.41;4968896;28;96739;-80
2021/11/22 09:17:11;;;;;;;1.77;0.60;;;;;;;9.79;50.43;101940.13;4976567;28;96804;-80
2021/11/22 09:19:38;;;;;;;2.42;0.70;;;;;;;9.99;50.52;101946.00;4977343;28;99753;-79
2021/11/22 09:22:11;;;;;;;3.90;1.15;;;;;;;10.20;49.85;101948.38;4969606;28;99432;-79
2021/11/22 09:24:40;;;;;;;3.53;0.93;;;;;;;10.48;49.10;101948.84;4973106;28;97522;-79
2021/11/22 09:27:10;;;;;;;3.03;1.40;;;;;;;10.08;48.83;101943.25;4977994;28;98355;-81
2021/11/22 09:29:38;;;;;;;3.67;1.77;;;;;;;10.18;50.15;101944.88;4974320;28;99366;-79
2021/11/22 09:32:07;;;;;;;3.72;1.40;;;;;;;10.05;49.18;101956.47;4979077;28;102048;-80
2021/11/22 09:34:38;;;;;;;4.88;1.67;;;;;;;10.12;48.95;101952.88;4977171;28;97127;-80
2021/11/22 09:37:05;;;;;;;4.95;1.25;;;;;;;9.97;49.72;101956.63;4975792;28;96777;-80
2021/11/22 09:39:32;;;;;;;1.27;0.73;;;;;;;10.27;48.29;101955.31;4972451;28;97935;-80
2021/11/22 09:42:01;;;;;;;2.53;0.93;;;;;;;10.57;47.69;101953.94;4968855;28;101600;-80
2021/11/22 09:44:27;;;;;;;1.92;1.00;;;;;;;10.29;48.30;101961.47;4970199;28;99907;-80
2021/11/22 09:46:55;;;;;;;4.07;0.90;;;;;;;10.58;47.59;101966.28;4968817;28;96961;-79
2021/11/22 09:49:39;;;;;;;2.85;1.30;;;;;;;10.60;47.39;101964.50;4967189;28;98218;-79
2021/11/22 09:52:06;;;;;;;3.05;0.85;;;;;;;10.94;46.59;101970.09;4964966;28;97699;-78
2021/11/22 09:54:33;;;;;;;2.65;1.52;;;;;;;10.94;46.49;101975.38;4970339;28;98269;-78
2021/11/22 09:57:01;;;;;;;1.35;0.77;;;;;;;11.67;45.50;101973.09;4972084;28;97185;-78
2021/11/22 09:59:28;;;;;;;3.75;0.90;;;;;;;10.96;46.29;101983.28;4969399;28;99036;-80
2021/11/22 10:01:57;;;;;;;3.70;0.80;;;;;;;10.52;46.45;101979.59;4967985;28;101798;-80
2021/11/22 10:04:29;;;;;;;4.20;0.85;;;;;;;10.73;45.56;101981.91;4975348;28;97037;-82
2021/11/22 10:06:57;;;;;;;0.68;0.60;;;;;;;11.17;44.70;101983.75;4977629;28;96996;-81
2021/11/22 10:09:44;;;;;;;1.33;0.75;;;;;;;10.79;44.87;101984.44;4971238;28;99100;-80
2021/11/22 10:12:20;;;;;;;3.80;0.70;;;;;;;10.98;44.78;101977.06;4977933;28;100684;-80
2021/11/22 10:14:50;;;;;;;3.00;0.80;;;;;;;11.02;44.25;101984.06;4982444;28;96661;-78
2021/11/22 10:17:32;;;;;;;3.42;0.80;;;;;;;11.19;44.23;101983.75;4980056;28;96923;-80
2021/11/22 10:20:22;;;;;;;1.58;0.65;;;;;;;10.94;44.28;101985.09;4977138;28;99136;-80
2021/11/22 10:25:44;;;;;;;1.52;0.60;;;;;;;11.55;43.71;101979.53;4981621;28;96724;-79
2021/11/22 10:28:15;;;;;;;1.38;0.60;;;;;;;11.82;42.91;101978.97;4978128;28;96837;-79
2021/11/22 10:30:44;;;;;;;3.83;0.60;;;;;;;11.91;42.12;101975.25;4979677;28;100204;-79
2021/11/22 10:33:13;;;;;;;3.20;0.70;;;;;;;11.83;41.58;101982.50;4972867;28;101393;-80
2021/11/22 10:35:40;;;;;;;2.05;0.57;;;;;;;11.67;42.43;101971.34;4969012;28;97555;-80
2021/11/22 10:38:12;;;;;;;2.90;0.50;;;;;;;12.16;42.04;101975.59;4972236;28;96841;-78
2021/11/22 10:40:42;;;;;;;4.65;0.95;;;;;;;12.29;42.04;101985.88;4970591;28;102142;-81
2021/11/22 10:43:09;;;;;;;3.58;1.20;;;;;;;11.95;42.18;101975.16;4967314;28;98819;-79
2021/11/22 10:45:40;;;;;;;5.20;0.57;;;;;;;12.28;41.47;101984.13;4969039;28;96765;-80
2021/11/22 10:48:19;;;;;;;2.75;1.20;;;;;;;12.27;41.60;101984.19;4985595;28;96942;-80
2021/11/22 10:50:52;;;;;;;1.02;0.32;;;;;;;11.62;41.97;101980.28;4984787;28;98314;-80
2021/11/22 10:53:33;;;;;;;0.85;0.40;;;;;;;10.98;43.32;101979.69;4977682;28;97788;-78
2021/11/22 10:56:02;;;;;;;0.90;0.52;;;;;;;11.95;41.93;101984.88;4980336;28;96918;-79
2021/11/22 10:58:36;;;;;;;2.22;0.50;;;;;;;11.62;41.60;101980.28;4978702;28;97183;-81
2021/11/22 11:01:23;;;;;;;1.65;0.70;;;;;;;11.13;41.73;101991.78;4977555;28;99625;-81
2021/11/22 11:03:56;;;;;;;4.60;0.40;;;;;;;10.45;42.82;101980.59;4964851;28;98874;-79
2021/11/22 11:06:38;;;;;;;1.23;0.47;;;;;;;11.15;42.20;101982.94;4973858;28;96918;-80
2021/11/22 11:09:06;;;;;;;1.60;0.52;;;;;;;10.91;42.51;101980.69;4977514;28;96748;-81
2021/11/22 11:14:54;;;;;;;1.00;0.38;;;;;;;10.89;41.47;101994.88;4923039;28;98701;-82
2021/11/22 11:17:24;;;;;;;1.02;0.25;;;;;;;11.04;40.88;101989.28;4984572;28;96896;-80
2021/11/22 11:19:54;;;;;;;0.55;0.30;;;;;;;10.45;41.13;101985.00;4988329;28;96777;-80
2021/11/22 11:22:23;;;;;;;0.77;0.30;;;;;;;10.35;41.78;101990.44;4992146;28;101003;-80
2021/11/22 11:24:50;;;;;;;1.70;0.40;;;;;;;10.53;40.99;101991.91;4993100;28;96830;-81
2021/11/22 11:30:07;;;;;;;2.28;0.65;;;;;;;10.86;40.71;101994.91;5005332;28;98394;-79
2021/11/22 11:32:37;;;;;;;5.65;0.40;;;;;;;10.91;40.33;102006.28;5008443;28;98498;-82
2021/11/22 11:35:14;;;;;;;1.13;0.45;;;;;;;10.98;40.11;102007.91;5022632;27;100890;-81
2021/11/22 11:37:57;;;;;;;1.17;0.30;;;;;;;10.97;40.93;102012.31;5018845;28;96475;-82
2021/11/22 11:40:38;;;;;;;1.75;1.00;;;;;;;10.68;40.58;102004.03;5012020;28;96458;-81
2021/11/22 11:43:43;;;;;;;0.30;0.30;;;;;;;10.68;40.98;102004.91;5014109;28;99826;-80